Time,TemperatureF,DewpointF,PressureIn,WindDirection,WindDirectionDegrees,WindSpeedMPH,WindSpeedGustMPH,Humidity,HourlyPrecipIn,Conditions,Clouds,dailyrainin,SolarRadiationWatts/m^2,SoftwareType,DateUTC
2013-05-13 00:03:00,39.2,29.2,30.11,North,360,2.3,4.8,67,0.00,CLR,,0.00,0.0,WeatherDisplay:10.37,2013-05-13 05:03:00,
2013-05-13 00:08:00,38.8,30.2,30.11,North,360,0.0,2.3,71,0.00,CLR,,0.00,0.0,WeatherDisplay:10.37,2013-05-13 05:08:00,
2013-05-13 00:13:00,38.5,30.3,30.11,North,360,0.0,0.0,72,0.00,CLR,,0.00,0.0,WeatherDisplay:10.37,2013-05-13 05:13:00,
2013-05-13 00:18:00,38.2,29.6,30.12,North,360,0.0,0.0,71,0.00,CLR,,0.00,0.0,WeatherDisplay:10.37,2013-05-13 05:18:00,
2013-05-13 00:23:00,37.9,29.0,30.12,North,360,0.0,0.0,70,0.00,CLR,,0.00,0.0,WeatherDisplay:10.37,2013-05-13 05:23:00,
2013-05-13 00:28:00,37.6,28.0,30.12,North,360,0.0,0.0,68,0.00,CLR,,0.00,0.0,WeatherDisplay:10.37,2013-05-13 05:28:00,
2013-05-13 00:33:00,37.5,27.9,30.12,North,360,0.0,0.0,68,0.00,CLR,,0.00,0.0,WeatherDisplay:10.37,2013-05-13 05:33:00,
2013-05-13 00:38:00,37.3,27.0,30.12,North,360,0.0,0.0,66,0.00,CLR,,0.00,0.0,WeatherDisplay:10.37,2013-05-13 05:38:00,
2013-05-13 00:43:00,37.2,26.1,30.12,North,360,0.0,0.0,64,0.00,CLR,,0.00,0.0,WeatherDisplay:10.37,2013-05-13 05:43:00,
2013-05-13 00:48:00,37.0,25.9,30.12,North,360,0.0,0.0,64,0.00,CLR,,0.00,0.0,WeatherDisplay:10.37,2013-05-13 05:48:00,
2013-05-13 00:53:00,37.0,26.7,30.12,North,360,0.0,0.0,66,0.00,CLR,,0.00,0.0,WeatherDisplay:10.37,2013-05-13 05:53:00,
2013-05-13 00:58:00,37.0,26.3,30.12,North,360,0.0,0.0,65,0.00,CLR,,0.00,0.0,WeatherDisplay:10.37,2013-05-13 05:58:00,
2013-05-13 01:03:00,36.9,25.9,30.13,North,360,0.0,0.0,64,0.00,CLR,,0.00,0.0,WeatherDisplay:10.37,2013-05-13 06:03:00,
2013-05-13 01:08:00,36.9,26.6,30.13,North,360,0.0,0.0,66,0.00,CLR,,0.00,0.0,WeatherDisplay:10.37,2013-05-13 06:08:00,
2013-05-13 01:13:00,36.9,25.9,30.13,North,360,0.0,0.0,64,0.00,CLR,,0.00,0.0,WeatherDisplay:10.37,2013-05-13 06:13:00,
2013-05-13 01:18:00,36.9,27.3,30.13,North,360,0.0,0.0,68,0.00,CLR,,0.00,0.0,WeatherDisplay:10.37,2013-05-13 06:18:00,
2013-05-13 01:23:00,36.9,27.3,30.13,North,360,0.0,0.0,68,0.00,CLR,,0.00,0.0,WeatherDisplay:10.37,2013-05-13 06:23:00,
2013-05-13 01:28:00,36.8,27.2,30.13,North,360,0.0,0.0,68,0.00,CLR,,0.00,0.0,WeatherDisplay:10.37,2013-05-13 06:28:00,
2013-05-13 01:33:00,36.6,26.7,30.14,North,360,0.0,0.0,67,0.00,CLR,,0.00,0.0,WeatherDisplay:10.37,2013-05-13 06:33:00,
2013-05-13 01:38:00,36.5,26.6,30.14,North,360,0.0,0.0,67,0.00,CLR,,0.00,0.0,WeatherDisplay:10.37,2013-05-13 06:38:00,
2013-05-13 01:43:00,36.3,26.7,30.14,North,360,0.0,0.0,68,0.00,CLR,,0.00,0.0,WeatherDisplay:10.37,2013-05-13 06:43:00,
2013-05-13 01:48:00,36.2,26.3,30.13,North,360,0.0,0.0,67,0.00,CLR,,0.00,0.0,WeatherDisplay:10.37,2013-05-13 06:48:00,
2013-05-13 01:53:00,36.2,27.0,30.13,North,360,0.0,0.0,69,0.00,CLR,,0.00,0.0,WeatherDisplay:10.37,2013-05-13 06:53:00,
2013-05-13 01:58:00,36.0,27.2,30.13,North,360,0.0,0.0,70,0.00,CLR,,0.00,0.0,WeatherDisplay:10.37,2013-05-13 06:58:00,
2013-05-13 02:03:00,35.9,27.4,30.13,North,360,0.0,0.0,71,0.00,CLR,,0.00,0.0,WeatherDisplay:10.37,2013-05-13 07:03:00,
2013-05-13 02:08:00,35.6,27.5,30.13,North,360,0.0,0.0,72,0.00,CLR,,0.00,0.0,WeatherDisplay:10.37,2013-05-13 07:08:00,
2013-05-13 02:13:00,35.5,27.4,30.13,North,360,0.0,0.0,72,0.00,CLR,,0.00,0.0,WeatherDisplay:10.37,2013-05-13 07:13:00,
2013-05-13 02:18:00,35.0,26.9,30.13,North,360,0.0,0.0,72,0.00,CLR,,0.00,0.0,WeatherDisplay:10.37,2013-05-13 07:18:00,
2013-05-13 02:23:00,34.9,26.8,30.13,North,360,0.0,0.0,72,0.00,CLR,,0.00,0.0,WeatherDisplay:10.37,2013-05-13 07:23:00,
2013-05-13 02:28:00,34.6,26.5,30.13,North,360,0.0,0.0,72,0.00,CLR,,0.00,0.0,WeatherDisplay:10.37,2013-05-13 07:28:00,
2013-05-13 02:33:00,34.3,26.2,30.12,North,360,0.0,0.0,72,0.00,CLR,,0.00,0.0,WeatherDisplay:10.37,2013-05-13 07:33:00,
2013-05-13 02:38:00,34.1,26.3,30.12,North,360,0.0,0.0,73,0.00,CLR,,0.00,0.0,WeatherDisplay:10.37,2013-05-13 07:38:00,
2013-05-13 02:43:00,34.0,25.9,30.12,North,360,0.0,0.0,72,0.00,CLR,,0.00,0.0,WeatherDisplay:10.37,2013-05-13 07:43:00,
2013-05-13 02:48:00,33.7,25.0,30.12,North,360,0.0,0.0,70,0.00,CLR,,0.00,0.0,WeatherDisplay:10.37,2013-05-13 07:48:00,
2013-05-13 02:53:00,33.5,24.8,30.12,North,360,0.0,0.0,70,0.00,CLR,,0.00,0.0,WeatherDisplay:10.37,2013-05-13 07:53:00,
2013-05-13 02:58:00,33.5,24.4,30.12,North,360,0.0,0.0,69,0.00,CLR,,0.00,0.0,WeatherDisplay:10.37,2013-05-13 07:58:00,
2013-05-13 03:03:00,33.8,24.7,30.12,North,360,0.0,0.0,69,0.00,CLR,,0.00,0.0,WeatherDisplay:10.37,2013-05-13 08:03:00,
2013-05-13 03:08:00,34.1,25.0,30.12,North,360,0.0,0.0,69,0.00,CLR,,0.00,0.0,WeatherDisplay:10.37,2013-05-13 08:08:00,
2013-05-13 03:13:00,34.4,24.9,30.12,North,360,0.0,0.0,68,0.00,CLR,,0.00,0.0,WeatherDisplay:10.37,2013-05-13 08:13:00,
2013-05-13 03:18:00,34.6,25.5,30.12,North,360,0.0,0.0,69,0.00,CLR,,0.00,0.0,WeatherDisplay:10.37,2013-05-13 08:18:00,
2013-05-13 03:23:00,34.7,25.9,30.12,North,360,0.0,0.0,70,0.00,CLR,,0.00,0.0,WeatherDisplay:10.37,2013-05-13 08:23:00,
2013-05-13 03:28:00,34.9,26.4,30.12,North,360,0.0,0.0,71,0.00,CLR,,0.00,0.0,WeatherDisplay:10.37,2013-05-13 08:28:00,
2013-05-13 03:33:00,34.7,26.3,30.12,North,360,0.0,0.0,71,0.00,CLR,,0.00,0.0,WeatherDisplay:10.37,2013-05-13 08:33:00,
2013-05-13 03:38:00,34.6,26.2,30.12,North,360,0.0,0.0,71,0.00,CLR,,0.00,0.0,WeatherDisplay:10.37,2013-05-13 08:38:00,
2013-05-13 03:43:00,34.4,26.3,30.12,North,360,0.0,0.0,72,0.00,CLR,,0.00,0.0,WeatherDisplay:10.37,2013-05-13 08:43:00,
2013-05-13 03:48:00,34.3,26.2,30.12,North,360,0.0,0.0,72,0.00,CLR,,0.00,0.0,WeatherDisplay:10.37,2013-05-13 08:48:00,
2013-05-13 03:53:00,34.1,26.3,30.12,North,360,0.0,0.0,73,0.00,CLR,,0.00,0.0,WeatherDisplay:10.37,2013-05-13 08:53:00,
2013-05-13 03:58:00,34.0,26.3,30.12,North,360,0.0,0.0,73,0.00,CLR,,0.00,0.0,WeatherDisplay:10.37,2013-05-13 08:58:00,
2013-05-13 04:03:00,33.8,26.1,30.12,North,360,0.0,0.0,73,0.00,CLR,,0.00,0.0,WeatherDisplay:10.37,2013-05-13 09:03:00,
2013-05-13 04:08:00,33.4,25.7,30.12,North,360,0.0,0.0,73,0.00,CLR,,0.00,0.0,WeatherDisplay:10.37,2013-05-13 09:08:00,
2013-05-13 04:13:00,33.4,26.0,30.12,North,360,0.0,0.0,74,0.00,CLR,,0.00,0.0,WeatherDisplay:10.37,2013-05-13 09:13:00,
2013-05-13 04:18:00,33.2,26.1,30.12,North,360,0.0,0.0,75,0.00,CLR,,0.00,0.0,WeatherDisplay:10.37,2013-05-13 09:18:00,
2013-05-13 04:23:00,33.1,26.4,30.12,North,360,0.0,0.0,76,0.00,CLR,,0.00,0.0,WeatherDisplay:10.37,2013-05-13 09:23:00,
2013-05-13 04:28:00,32.9,26.2,30.12,North,360,0.0,0.0,76,0.00,CLR,,0.00,0.0,WeatherDisplay:10.37,2013-05-13 09:28:00,
2013-05-13 04:33:00,32.8,26.1,30.12,North,360,0.0,0.0,76,0.00,CLR,,0.00,0.0,WeatherDisplay:10.37,2013-05-13 09:33:00,
2013-05-13 04:38:00,32.7,26.3,30.12,North,360,0.0,0.0,77,0.00,CLR,,0.00,0.0,WeatherDisplay:10.37,2013-05-13 09:38:00,
2013-05-13 04:43:00,32.7,26.3,30.12,North,360,0.0,0.0,77,0.00,CLR,,0.00,0.0,WeatherDisplay:10.37,2013-05-13 09:43:00,
2013-05-13 04:48:00,32.4,26.3,30.12,North,360,0.0,0.0,78,0.00,CLR,,0.00,0.0,WeatherDisplay:10.37,2013-05-13 09:48:00,
2013-05-13 04:53:00,32.2,26.4,30.12,North,360,0.0,0.0,79,0.00,CLR,,0.00,0.0,WeatherDisplay:10.37,2013-05-13 09:53:00,
2013-05-13 04:58:00,32.1,26.3,30.12,North,360,0.0,0.0,79,0.00,CLR,,0.00,0.0,WeatherDisplay:10.37,2013-05-13 09:58:00,
2013-05-13 05:03:00,31.9,26.4,30.12,North,360,0.0,0.0,80,0.00,CLR,,0.00,0.0,WeatherDisplay:10.37,2013-05-13 10:03:00,
2013-05-13 05:08:00,31.9,26.4,30.12,North,360,0.0,0.0,80,0.00,CLR,,0.00,0.0,WeatherDisplay:10.37,2013-05-13 10:08:00,
2013-05-13 05:13:00,31.8,26.3,30.12,North,360,0.0,0.0,80,0.00,CLR,,0.00,0.0,WeatherDisplay:10.37,2013-05-13 10:13:00,
2013-05-13 05:18:00,31.6,26.4,30.13,North,360,0.0,0.0,81,0.00,CLR,,0.00,0.0,WeatherDisplay:10.37,2013-05-13 10:18:00,
2013-05-13 05:23:00,31.5,26.3,30.13,North,360,0.0,0.0,81,0.00,CLR,,0.00,0.0,WeatherDisplay:10.37,2013-05-13 10:23:00,
2013-05-13 05:28:00,31.3,26.4,30.13,North,360,0.0,0.0,82,0.00,CLR,,0.00,0.0,WeatherDisplay:10.37,2013-05-13 10:28:00,
2013-05-13 05:33:00,31.2,26.3,30.14,North,360,0.0,0.0,82,0.00,CLR,,0.00,0.0,WeatherDisplay:10.37,2013-05-13 10:33:00,
2013-05-13 05:38:00,31.0,26.1,30.14,North,360,0.0,0.0,82,0.00,CLR,,0.00,5.0,WeatherDisplay:10.37,2013-05-13 10:38:00,
2013-05-13 05:43:00,31.0,26.4,30.14,North,360,0.0,0.0,83,0.00,CLR,,0.00,7.0,WeatherDisplay:10.37,2013-05-13 10:43:00,
2013-05-13 05:48:00,31.0,26.4,30.14,North,360,0.0,0.0,83,0.00,CLR,,0.00,11.0,WeatherDisplay:10.37,2013-05-13 10:48:00,
2013-05-13 05:53:00,31.0,26.7,30.14,North,360,0.0,0.0,84,0.00,CLR,,0.00,12.0,WeatherDisplay:10.37,2013-05-13 10:53:00,
2013-05-13 05:58:00,31.0,26.7,30.14,North,360,0.0,0.0,84,0.00,CLR,,0.00,16.0,WeatherDisplay:10.37,2013-05-13 10:58:00,
2013-05-13 06:03:00,31.0,26.7,30.14,North,360,0.0,0.0,84,0.00,CLR,,0.00,19.0,WeatherDisplay:10.37,2013-05-13 11:03:00,
2013-05-13 06:08:00,31.2,27.2,30.14,North,360,0.0,0.0,85,0.00,CLR,,0.00,23.0,WeatherDisplay:10.37,2013-05-13 11:08:00,
2013-05-13 06:13:00,31.3,27.3,30.14,North,360,0.0,0.0,85,0.00,CLR,,0.00,26.0,WeatherDisplay:10.37,2013-05-13 11:13:00,
2013-05-13 06:18:00,31.5,27.5,30.14,North,360,0.0,0.0,85,0.00,CLR,,0.00,32.0,WeatherDisplay:10.37,2013-05-13 11:18:00,
2013-05-13 06:23:00,31.6,27.6,30.14,North,360,0.0,0.0,85,0.00,CLR,,0.00,40.0,WeatherDisplay:10.37,2013-05-13 11:23:00,
2013-05-13 06:28:00,31.8,27.8,30.14,North,360,0.0,0.0,85,0.00,CLR,,0.00,53.0,WeatherDisplay:10.37,2013-05-13 11:28:00,
2013-05-13 06:33:00,32.1,28.1,30.14,North,360,0.0,0.0,85,0.00,CLR,,0.00,58.0,WeatherDisplay:10.37,2013-05-13 11:33:00,
2013-05-13 06:38:00,32.2,28.5,30.14,North,360,0.0,0.0,86,0.00,CLR,,0.00,88.0,WeatherDisplay:10.37,2013-05-13 11:38:00,
2013-05-13 06:43:00,32.8,29.1,30.14,North,360,0.0,0.0,86,0.00,CLR,,0.00,102.0,WeatherDisplay:10.37,2013-05-13 11:43:00,
2013-05-13 06:48:00,33.4,29.4,30.15,North,360,0.0,0.0,85,0.00,CLR,,0.00,183.0,WeatherDisplay:10.37,2013-05-13 11:48:00,
2013-05-13 06:53:00,33.7,29.7,30.15,North,360,0.0,0.0,85,0.00,CLR,,0.00,195.0,WeatherDisplay:10.37,2013-05-13 11:53:00,
2013-05-13 06:58:00,34.6,30.3,30.15,North,360,0.0,0.0,84,0.00,CLR,,0.00,207.0,WeatherDisplay:10.37,2013-05-13 11:58:00,
2013-05-13 07:03:00,35.0,30.4,30.15,North,360,0.0,0.0,83,0.00,CLR,,0.00,221.0,WeatherDisplay:10.37,2013-05-13 12:03:00,
2013-05-13 07:08:00,35.2,30.0,30.15,North,360,0.0,0.0,81,0.00,CLR,,0.00,237.0,WeatherDisplay:10.37,2013-05-13 12:08:00,
2013-05-13 07:13:00,35.6,30.3,30.15,North,360,0.0,0.0,81,0.00,CLR,,0.00,253.0,WeatherDisplay:10.37,2013-05-13 12:13:00,
2013-05-13 07:18:00,36.6,30.4,30.15,North,360,0.0,0.0,78,0.00,CLR,,0.00,272.0,WeatherDisplay:10.37,2013-05-13 12:18:00,
2013-05-13 07:23:00,37.3,30.7,30.15,North,360,0.0,0.0,77,0.00,CLR,,0.00,288.0,WeatherDisplay:10.37,2013-05-13 12:23:00,
2013-05-13 07:28:00,37.6,30.4,30.15,North,360,0.0,0.0,75,0.00,CLR,,0.00,302.0,WeatherDisplay:10.37,2013-05-13 12:28:00,
2013-05-13 07:33:00,37.6,30.4,30.16,North,360,0.0,0.0,75,0.00,CLR,,0.00,320.0,WeatherDisplay:10.37,2013-05-13 12:33:00,
2013-05-13 07:38:00,37.8,30.3,30.16,North,360,0.0,0.0,74,0.00,CLR,,0.00,334.0,WeatherDisplay:10.37,2013-05-13 12:38:00,
2013-05-13 07:43:00,38.0,30.8,30.16,North,360,0.0,1.2,75,0.00,CLR,,0.00,352.0,WeatherDisplay:10.37,2013-05-13 12:43:00,
2013-05-13 07:48:00,38.6,31.0,30.16,North,360,0.0,0.0,74,0.00,CLR,,0.00,369.0,WeatherDisplay:10.37,2013-05-13 12:48:00,
2013-05-13 07:53:00,39.1,30.8,30.16,North,360,0.0,0.0,72,0.00,CLR,,0.00,383.0,WeatherDisplay:10.37,2013-05-13 12:53:00,
2013-05-13 07:58:00,39.5,30.9,30.16,North,360,0.0,0.0,71,0.00,CLR,,0.00,396.0,WeatherDisplay:10.37,2013-05-13 12:58:00,
2013-05-13 08:03:00,39.9,30.5,30.16,North,360,0.6,2.4,69,0.00,CLR,,0.00,410.0,WeatherDisplay:10.37,2013-05-13 13:03:00,
2013-05-13 08:08:00,40.5,30.4,30.16,North,360,0.1,1.2,67,0.00,CLR,,0.00,424.0,WeatherDisplay:10.37,2013-05-13 13:08:00,
2013-05-13 08:13:00,41.1,30.2,30.16,South,186,0.2,1.2,65,0.00,CLR,,0.00,443.0,WeatherDisplay:10.37,2013-05-13 13:13:00,
2013-05-13 08:18:00,41.8,29.7,30.16,South,184,0.0,0.0,62,0.00,CLR,,0.00,462.0,WeatherDisplay:10.37,2013-05-13 13:18:00,
2013-05-13 08:23:00,42.5,30.0,30.16,South,184,0.1,1.2,61,0.00,CLR,,0.00,471.0,WeatherDisplay:10.37,2013-05-13 13:23:00,
2013-05-13 08:28:00,42.9,30.8,30.16,South,184,0.0,0.0,62,0.00,CLR,,0.00,492.0,WeatherDisplay:10.37,2013-05-13 13:28:00,
2013-05-13 08:33:00,43.1,30.1,30.17,SW,215,4.8,6.0,60,0.00,CLR,,0.00,506.0,WeatherDisplay:10.37,2013-05-13 13:33:00,
2013-05-13 08:38:00,43.2,30.6,30.17,SW,215,0.0,1.2,61,0.00,CLR,,0.00,522.0,WeatherDisplay:10.37,2013-05-13 13:38:00,
2013-05-13 08:43:00,43.8,30.0,30.17,SSW,208,0.0,1.2,58,0.00,CLR,,0.00,538.0,WeatherDisplay:10.37,2013-05-13 13:43:00,
2013-05-13 08:48:00,44.1,29.8,30.17,SSW,207,1.0,2.4,57,0.00,CLR,,0.00,554.0,WeatherDisplay:10.37,2013-05-13 13:48:00,
2013-05-13 08:53:00,44.5,30.2,30.17,SSW,207,0.4,2.4,57,0.00,CLR,,0.00,568.0,WeatherDisplay:10.37,2013-05-13 13:53:00,
2013-05-13 08:58:00,45.5,29.8,30.17,SSW,207,0.0,1.2,54,0.00,CLR,,0.00,584.0,WeatherDisplay:10.37,2013-05-13 13:58:00,
2013-05-13 09:03:00,46.5,30.3,30.17,East,89,0.0,0.0,53,0.00,CLR,,0.00,598.0,WeatherDisplay:10.37,2013-05-13 14:03:00,
2013-05-13 09:08:00,47.1,29.4,30.17,SSE,155,4.2,6.0,50,0.00,CLR,,0.00,612.0,WeatherDisplay:10.37,2013-05-13 14:08:00,
2013-05-13 09:13:00,47.0,29.3,30.17,SSW,197,2.9,4.8,50,0.00,CLR,,0.00,624.0,WeatherDisplay:10.37,2013-05-13 14:13:00,
2013-05-13 09:18:00,47.9,29.1,30.17,South,185,0.1,1.2,48,0.00,CLR,,0.00,642.0,WeatherDisplay:10.37,2013-05-13 14:18:00,
2013-05-13 09:23:00,47.4,29.7,30.17,South,188,4.7,6.0,50,0.00,CLR,,0.00,657.0,WeatherDisplay:10.37,2013-05-13 14:23:00,
2013-05-13 09:28:00,47.4,29.7,30.17,South,186,3.0,4.8,50,0.00,CLR,,0.00,670.0,WeatherDisplay:10.37,2013-05-13 14:28:00,
2013-05-13 09:33:00,47.6,29.9,30.16,South,186,0.0,0.0,50,0.00,CLR,,0.00,679.0,WeatherDisplay:10.37,2013-05-13 14:33:00,
2013-05-13 09:38:00,48.0,29.7,30.16,South,186,0.0,1.2,49,0.00,CLR,,0.00,689.0,WeatherDisplay:10.37,2013-05-13 14:38:00,
2013-05-13 09:43:00,48.0,29.7,30.16,South,186,3.0,6.0,49,0.00,CLR,,0.00,710.0,WeatherDisplay:10.37,2013-05-13 14:43:00,
2013-05-13 09:48:00,48.3,29.5,30.16,South,186,0.3,2.4,48,0.00,CLR,,0.00,721.0,WeatherDisplay:10.37,2013-05-13 14:48:00,
2013-05-13 09:53:00,49.2,29.8,30.16,South,185,0.2,6.9,47,0.00,CLR,,0.00,731.0,WeatherDisplay:10.37,2013-05-13 14:53:00,
2013-05-13 09:58:00,50.1,29.6,30.16,South,175,1.3,4.8,45,0.00,CLR,,0.00,740.0,WeatherDisplay:10.37,2013-05-13 14:58:00,
2013-05-13 10:03:00,50.5,28.8,30.16,East,89,0.8,3.6,43,0.00,CLR,,0.00,752.0,WeatherDisplay:10.37,2013-05-13 15:03:00,
2013-05-13 10:08:00,50.8,29.1,30.16,SSE,166,2.1,4.8,43,0.00,CLR,,0.00,766.0,WeatherDisplay:10.37,2013-05-13 15:08:00,
2013-05-13 10:13:00,51.0,29.3,30.16,SSE,159,0.0,1.2,43,0.00,CLR,,0.00,777.0,WeatherDisplay:10.37,2013-05-13 15:13:00,
2013-05-13 10:18:00,51.9,28.3,30.15,SSE,157,0.0,1.2,40,0.00,CLR,,0.00,789.0,WeatherDisplay:10.37,2013-05-13 15:18:00,
2013-05-13 10:23:00,52.5,28.2,30.15,WSW,239,2.1,4.8,39,0.00,CLR,,0.00,775.0,WeatherDisplay:10.37,2013-05-13 15:23:00,
2013-05-13 10:28:00,52.3,28.7,30.15,WSW,237,0.0,0.0,40,0.00,CLR,,0.00,817.0,WeatherDisplay:10.37,2013-05-13 15:28:00,
2013-05-13 10:33:00,52.5,28.2,30.15,SW,219,1.3,4.6,39,0.00,CLR,,0.00,819.0,WeatherDisplay:10.37,2013-05-13 15:33:00,
2013-05-13 10:38:00,52.5,28.8,30.15,SSE,164,0.0,2.3,40,0.00,CLR,,0.00,823.0,WeatherDisplay:10.37,2013-05-13 15:38:00,
2013-05-13 10:43:00,52.8,28.5,30.15,SSW,207,0.0,0.0,39,0.00,CLR,,0.00,837.0,WeatherDisplay:10.37,2013-05-13 15:43:00,
2013-05-13 10:48:00,52.8,27.9,30.15,SSW,208,0.0,0.0,38,0.00,CLR,,0.00,847.0,WeatherDisplay:10.37,2013-05-13 15:48:00,
2013-05-13 10:53:00,53.8,28.1,30.15,SSW,211,3.6,6.0,37,0.00,CLR,,0.00,856.0,WeatherDisplay:10.37,2013-05-13 15:53:00,
2013-05-13 10:58:00,53.6,29.2,30.15,South,177,2.2,5.8,39,0.00,CLR,,0.00,867.0,WeatherDisplay:10.37,2013-05-13 15:58:00,
2013-05-13 11:03:00,53.5,27.8,30.15,South,181,0.0,4.6,37,0.00,CLR,,0.00,874.0,WeatherDisplay:10.37,2013-05-13 16:03:00,
2013-05-13 11:08:00,55.1,29.9,30.15,South,181,0.0,0.0,38,0.00,CLR,,0.00,879.0,WeatherDisplay:10.37,2013-05-13 16:08:00,
2013-05-13 11:13:00,54.8,28.3,30.15,South,181,0.0,0.0,36,0.00,CLR,,0.00,886.0,WeatherDisplay:10.37,2013-05-13 16:13:00,
2013-05-13 11:18:00,55.4,27.5,30.14,SSW,199,5.7,7.2,34,0.00,CLR,,0.00,895.0,WeatherDisplay:10.37,2013-05-13 16:18:00,
2013-05-13 11:23:00,55.1,28.6,30.14,SSW,198,0.1,1.2,36,0.00,CLR,,0.00,898.0,WeatherDisplay:10.37,2013-05-13 16:23:00,
2013-05-13 11:28:00,55.3,26.7,30.14,SSW,198,0.0,1.2,33,0.00,CLR,,0.00,904.0,WeatherDisplay:10.37,2013-05-13 16:28:00,
2013-05-13 11:33:00,55.4,26.7,30.14,South,175,2.5,6.0,33,0.00,CLR,,0.00,907.0,WeatherDisplay:10.37,2013-05-13 16:33:00,
2013-05-13 11:38:00,55.3,25.9,30.14,South,189,2.0,4.6,32,0.00,CLR,,0.00,916.0,WeatherDisplay:10.37,2013-05-13 16:38:00,
2013-05-13 11:43:00,55.9,26.4,30.14,West,269,2.3,4.8,32,0.00,CLR,,0.00,918.0,WeatherDisplay:10.37,2013-05-13 16:43:00,
2013-05-13 11:48:00,56.5,27.7,30.13,SW,214,6.4,10.8,33,0.00,CLR,,0.00,926.0,WeatherDisplay:10.37,2013-05-13 16:48:00,
2013-05-13 11:53:00,56.2,25.9,30.13,WSW,240,4.1,6.0,31,0.00,CLR,,0.00,928.0,WeatherDisplay:10.37,2013-05-13 16:53:00,
2013-05-13 11:58:00,56.7,27.1,30.13,NW,317,0.5,3.6,32,0.00,CLR,,0.00,930.0,WeatherDisplay:10.37,2013-05-13 16:58:00,
2013-05-13 12:03:00,58.0,27.5,30.12,West,280,3.8,6.0,31,0.00,CLR,,0.00,932.0,WeatherDisplay:10.37,2013-05-13 17:03:00,
2013-05-13 12:08:00,57.6,27.9,30.12,WNW,296,0.5,2.4,32,0.00,CLR,,0.00,904.0,WeatherDisplay:10.37,2013-05-13 17:08:00,
2013-05-13 12:13:00,57.8,28.9,30.12,South,189,1.7,5.8,33,0.00,CLR,,0.00,940.0,WeatherDisplay:10.37,2013-05-13 17:13:00,
2013-05-13 12:18:00,58.3,30.7,30.12,South,183,0.5,5.8,35,0.00,CLR,,0.00,944.0,WeatherDisplay:10.37,2013-05-13 17:18:00,
2013-05-13 12:23:00,59.2,30.8,30.12,South,183,1.9,4.8,34,0.00,CLR,,0.00,946.0,WeatherDisplay:10.37,2013-05-13 17:23:00,
2013-05-13 12:28:00,58.6,28.0,30.12,WSW,253,1.4,4.6,31,0.00,CLR,,0.00,925.0,WeatherDisplay:10.37,2013-05-13 17:28:00,
2013-05-13 12:33:00,58.3,28.5,30.11,SSE,163,0.0,1.2,32,0.00,CLR,,0.00,954.0,WeatherDisplay:10.37,2013-05-13 17:33:00,
2013-05-13 12:38:00,58.4,27.9,30.11,South,175,1.2,4.8,31,0.00,CLR,,0.00,940.0,WeatherDisplay:10.37,2013-05-13 17:38:00,
2013-05-13 12:43:00,59.5,28.8,30.11,WNW,302,1.5,3.6,31,0.00,CLR,,0.00,965.0,WeatherDisplay:10.37,2013-05-13 17:43:00,
2013-05-13 12:48:00,59.0,26.8,30.10,NW,313,0.1,1.2,29,0.00,CLR,,0.00,954.0,WeatherDisplay:10.37,2013-05-13 17:48:00,
2013-05-13 12:53:00,59.5,28.0,30.10,SW,229,2.4,4.8,30,0.00,CLR,,0.00,958.0,WeatherDisplay:10.37,2013-05-13 17:53:00,
2013-05-13 12:58:00,60.2,27.8,30.10,WSW,252,0.0,0.0,29,0.00,CLR,,0.00,954.0,WeatherDisplay:10.37,2013-05-13 17:58:00,
2013-05-13 13:03:00,63.1,29.4,30.09,WSW,252,0.0,0.0,28,0.00,CLR,,0.00,914.0,WeatherDisplay:10.37,2013-05-13 18:03:00,
2013-05-13 13:08:00,61.5,29.7,30.09,South,180,3.2,6.0,30,0.00,CLR,,0.00,958.0,WeatherDisplay:10.37,2013-05-13 18:08:00,
2013-05-13 13:13:00,59.8,27.4,30.09,South,180,2.4,6.0,29,0.00,CLR,,0.00,914.0,WeatherDisplay:10.37,2013-05-13 18:13:00,
2013-05-13 13:18:00,59.9,26.7,30.09,WNW,294,1.7,4.8,28,0.00,CLR,,0.00,926.0,WeatherDisplay:10.37,2013-05-13 18:18:00,
2013-05-13 13:23:00,59.9,25.8,30.09,SE,137,6.1,7.2,27,0.00,CLR,,0.00,930.0,WeatherDisplay:10.37,2013-05-13 18:23:00,
2013-05-13 13:28:00,60.2,26.1,30.09,WSW,252,3.2,7.2,27,0.00,CLR,,0.00,933.0,WeatherDisplay:10.37,2013-05-13 18:28:00,
2013-05-13 13:33:00,61.3,27.0,30.07,WNW,293,2.7,6.9,27,0.00,CLR,,0.00,940.0,WeatherDisplay:10.37,2013-05-13 18:33:00,
2013-05-13 13:38:00,60.9,30.0,30.07,South,179,5.1,6.0,31,0.00,CLR,,0.00,933.0,WeatherDisplay:10.37,2013-05-13 18:38:00,
2013-05-13 13:43:00,60.9,25.7,30.07,SSE,160,0.1,2.3,26,0.00,CLR,,0.00,909.0,WeatherDisplay:10.37,2013-05-13 18:43:00,
2013-05-13 13:48:00,61.8,26.5,30.07,ENE,64,2.2,8.1,26,0.00,CLR,,0.00,905.0,WeatherDisplay:10.37,2013-05-13 18:48:00,
2013-05-13 13:53:00,62.3,27.9,30.07,SW,236,1.8,4.6,27,0.00,CLR,,0.00,923.0,WeatherDisplay:10.37,2013-05-13 18:53:00,
2013-05-13 13:58:00,63.5,33.9,30.07,WSW,248,1.4,4.8,33,0.00,CLR,,0.00,865.0,WeatherDisplay:10.37,2013-05-13 18:58:00,
2013-05-13 14:03:00,62.6,29.0,30.07,WNW,298,0.0,2.3,28,0.00,CLR,,0.00,837.0,WeatherDisplay:10.37,2013-05-13 19:03:00,
2013-05-13 14:08:00,61.8,26.5,30.07,SW,224,5.1,8.4,26,0.00,CLR,,0.00,831.0,WeatherDisplay:10.37,2013-05-13 19:08:00,
2013-05-13 14:13:00,61.3,28.7,30.07,South,186,0.0,4.6,29,0.00,CLR,,0.00,831.0,WeatherDisplay:10.37,2013-05-13 19:13:00,
2013-05-13 14:18:00,62.9,29.3,30.06,West,261,4.3,8.4,28,0.00,CLR,,0.00,842.0,WeatherDisplay:10.37,2013-05-13 19:18:00,
2013-05-13 14:23:00,63.5,29.8,30.06,WSW,237,0.0,0.0,28,0.00,CLR,,0.00,805.0,WeatherDisplay:10.37,2013-05-13 19:23:00,
2013-05-13 14:28:00,63.4,29.7,30.06,SSE,161,11.1,13.2,28,0.00,CLR,,0.00,802.0,WeatherDisplay:10.37,2013-05-13 19:28:00,
2013-05-13 14:33:00,62.4,27.9,30.05,SE,135,0.3,6.9,27,0.00,CLR,,0.00,780.0,WeatherDisplay:10.37,2013-05-13 19:33:00,
2013-05-13 14:38:00,63.7,30.0,30.05,South,191,3.6,6.0,28,0.00,CLR,,0.00,729.0,WeatherDisplay:10.37,2013-05-13 19:38:00,
2013-05-13 14:43:00,63.2,27.7,30.05,South,175,3.4,6.9,26,0.00,CLR,,0.00,744.0,WeatherDisplay:10.37,2013-05-13 19:43:00,
2013-05-13 14:48:00,62.7,30.0,30.04,SSW,194,3.7,8.1,29,0.00,CLR,,0.00,731.0,WeatherDisplay:10.37,2013-05-13 19:48:00,
2013-05-13 14:53:00,62.4,28.8,30.04,SW,218,4.0,4.8,28,0.00,CLR,,0.00,707.0,WeatherDisplay:10.37,2013-05-13 19:53:00,
2013-05-13 14:58:00,62.7,30.8,30.04,South,182,7.0,8.4,30,0.00,CLR,,0.00,671.0,WeatherDisplay:10.37,2013-05-13 19:58:00,
2013-05-13 15:03:00,63.1,30.3,30.04,SSE,161,7.4,8.4,29,0.00,CLR,,0.00,682.0,WeatherDisplay:10.37,2013-05-13 20:03:00,
2013-05-13 15:08:00,63.1,29.4,30.04,South,191,3.9,6.0,28,0.00,CLR,,0.00,601.0,WeatherDisplay:10.37,2013-05-13 20:08:00,
2013-05-13 15:13:00,63.5,29.8,30.04,SSW,208,4.0,8.4,28,0.00,CLR,,0.00,517.0,WeatherDisplay:10.37,2013-05-13 20:13:00,
2013-05-13 15:18:00,63.4,29.7,30.03,SW,228,3.2,6.0,28,0.00,CLR,,0.00,538.0,WeatherDisplay:10.37,2013-05-13 20:18:00,
2013-05-13 15:23:00,62.9,30.1,30.03,South,182,8.7,13.2,29,0.00,CLR,,0.00,519.0,WeatherDisplay:10.37,2013-05-13 20:23:00,
2013-05-13 15:28:00,63.2,29.5,30.03,SSE,163,1.7,4.8,28,0.00,CLR,,0.00,462.0,WeatherDisplay:10.37,2013-05-13 20:28:00,
2013-05-13 15:33:00,63.4,29.7,30.02,SSW,207,4.2,8.1,28,0.00,CLR,,0.00,529.0,WeatherDisplay:10.37,2013-05-13 20:33:00,
2013-05-13 15:38:00,63.2,31.2,30.02,South,185,9.4,14.4,30,0.00,CLR,,0.00,501.0,WeatherDisplay:10.37,2013-05-13 20:38:00,
2013-05-13 15:43:00,63.2,29.5,30.02,SW,217,9.0,9.6,28,0.00,CLR,,0.00,522.0,WeatherDisplay:10.37,2013-05-13 20:43:00,
2013-05-13 15:48:00,63.2,30.4,30.02,SSW,193,4.8,7.2,29,0.00,CLR,,0.00,397.0,WeatherDisplay:10.37,2013-05-13 20:48:00,
2013-05-13 15:53:00,63.1,28.5,30.02,SW,219,11.6,15.0,27,0.00,CLR,,0.00,366.0,WeatherDisplay:10.37,2013-05-13 20:53:00,
2013-05-13 15:58:00,63.1,29.4,30.02,South,183,10.2,17.3,28,0.00,CLR,,0.00,341.0,WeatherDisplay:10.37,2013-05-13 20:58:00,
2013-05-13 16:03:00,63.2,31.2,30.02,South,189,5.5,11.5,30,0.00,CLR,,0.00,322.0,WeatherDisplay:10.37,2013-05-13 21:03:00,
2013-05-13 16:08:00,63.2,30.4,30.02,South,182,7.8,10.8,29,0.00,CLR,,0.00,292.0,WeatherDisplay:10.37,2013-05-13 21:08:00,
2013-05-13 16:13:00,63.1,31.1,30.02,South,185,4.9,8.1,30,0.00,CLR,,0.00,237.0,WeatherDisplay:10.37,2013-05-13 21:13:00,
2013-05-13 16:18:00,63.1,28.5,30.01,South,171,3.7,6.9,27,0.00,CLR,,0.00,188.0,WeatherDisplay:10.37,2013-05-13 21:18:00,
2013-05-13 16:23:00,63.1,30.3,30.01,SSW,192,0.1,3.5,29,0.00,-RA,,0.00,149.0,WeatherDisplay:10.37,2013-05-13 21:23:00,
2013-05-13 16:28:00,63.2,29.5,30.01,SSW,193,3.7,6.0,28,0.00,-RA,,0.00,134.0,WeatherDisplay:10.37,2013-05-13 21:28:00,
2013-05-13 16:33:00,63.2,30.4,30.00,South,190,3.9,6.0,29,0.00,-RA,,0.00,121.0,WeatherDisplay:10.37,2013-05-13 21:33:00,
2013-05-13 16:38:00,63.2,31.2,30.00,South,175,5.1,7.2,30,0.00,-RA,,0.00,153.0,WeatherDisplay:10.37,2013-05-13 21:38:00,
2013-05-13 16:43:00,63.2,30.4,30.00,South,186,7.5,12.0,29,0.00,-RA,,0.00,190.0,WeatherDisplay:10.37,2013-05-13 21:43:00,
2013-05-13 16:48:00,63.2,30.4,30.00,SSW,210,6.2,9.6,29,0.00,-RA,,0.00,167.0,WeatherDisplay:10.37,2013-05-13 21:48:00,
2013-05-13 16:53:00,63.2,32.0,30.00,SSW,200,5.4,8.4,31,0.00,-RA,,0.00,125.0,WeatherDisplay:10.37,2013-05-13 21:53:00,
2013-05-13 16:58:00,63.2,31.2,30.00,South,171,3.4,9.6,30,0.00,-RA,,0.00,163.0,WeatherDisplay:10.37,2013-05-13 21:58:00,
2013-05-13 17:03:00,63.2,30.4,29.96,South,173,4.7,9.6,29,0.00,SCT,,0.00,149.0,WeatherDisplay:10.37,2013-05-13 22:03:00,
2013-05-13 17:08:00,63.4,30.6,29.96,SE,134,5.9,8.4,29,0.00,SCT,,0.00,176.0,WeatherDisplay:10.37,2013-05-13 22:08:00,
2013-05-13 17:13:00,63.4,29.7,29.96,South,180,5.2,9.6,28,0.00,SCT,,0.00,121.0,WeatherDisplay:10.37,2013-05-13 22:13:00,
2013-05-13 17:18:00,63.2,30.4,29.97,South,171,7.2,10.8,29,0.00,SCT,,0.00,74.0,WeatherDisplay:10.37,2013-05-13 22:18:00,
2013-05-13 17:23:00,63.1,31.1,29.97,South,182,4.1,8.4,30,0.00,CLR,,0.00,81.0,WeatherDisplay:10.37,2013-05-13 22:23:00,
2013-05-13 17:28:00,62.9,31.0,29.97,South,187,8.8,12.0,30,0.00,CLR,,0.00,62.0,WeatherDisplay:10.37,2013-05-13 22:28:00,
2013-05-13 17:33:00,62.9,30.1,29.97,South,185,10.8,17.3,29,0.00,CLR,,0.00,86.0,WeatherDisplay:10.37,2013-05-13 22:33:00,
2013-05-13 17:38:00,62.7,31.6,29.97,South,182,6.5,8.1,31,0.00,CLR,,0.00,100.0,WeatherDisplay:10.37,2013-05-13 22:38:00,
2013-05-13 17:43:00,62.6,33.1,29.97,SSE,148,8.8,16.1,33,0.00,CLR,,0.00,130.0,WeatherDisplay:10.37,2013-05-13 22:43:00,
2013-05-13 17:48:00,62.4,33.6,29.97,South,180,6.0,10.4,34,0.00,CLR,,0.00,146.0,WeatherDisplay:10.37,2013-05-13 22:48:00,
2013-05-13 17:53:00,62.4,32.9,29.97,SW,232,8.5,12.0,33,0.00,CLR,,0.00,146.0,WeatherDisplay:10.37,2013-05-13 22:53:00,
2013-05-13 17:58:00,62.4,32.1,29.97,South,184,5.5,10.4,32,0.00,CLR,,0.00,134.0,WeatherDisplay:10.37,2013-05-13 22:58:00,
2013-05-13 18:03:00,62.4,32.1,29.97,SSE,151,6.5,8.1,32,0.00,CLR,,0.00,132.0,WeatherDisplay:10.37,2013-05-13 23:03:00,
2013-05-13 18:08:00,62.4,32.9,29.97,SSW,192,5.4,7.2,33,0.00,CLR,,0.00,151.0,WeatherDisplay:10.37,2013-05-13 23:08:00,
2013-05-13 18:13:00,62.4,32.1,29.97,South,190,8.7,13.2,32,0.00,CLR,,0.00,130.0,WeatherDisplay:10.37,2013-05-13 23:13:00,
2013-05-13 18:18:00,62.4,32.9,29.95,South,190,1.7,6.0,33,0.00,CLR,,0.00,102.0,WeatherDisplay:10.37,2013-05-13 23:18:00,
2013-05-13 18:23:00,62.3,32.8,29.95,South,182,3.8,9.2,33,0.00,SCT,,0.00,90.0,WeatherDisplay:10.37,2013-05-13 23:23:00,
2013-05-13 18:28:00,62.3,32.8,29.95,SSW,211,7.2,9.6,33,0.00,SCT,,0.00,77.0,WeatherDisplay:10.37,2013-05-13 23:28:00,
2013-05-13 18:33:00,62.3,32.0,29.95,South,178,6.8,10.8,32,0.00,SCT,,0.00,72.0,WeatherDisplay:10.37,2013-05-13 23:33:00,
2013-05-13 18:38:00,62.3,34.3,29.95,SSW,207,3.2,6.0,35,0.00,SCT,,0.00,63.0,WeatherDisplay:10.37,2013-05-13 23:38:00,
2013-05-13 18:43:00,62.3,32.8,29.95,SSW,204,6.9,10.8,33,0.00,BKN,,0.00,63.0,WeatherDisplay:10.37,2013-05-13 23:43:00,
2013-05-13 18:48:00,62.3,35.0,29.96,South,188,2.6,6.9,36,0.00,BKN,,0.00,76.0,WeatherDisplay:10.37,2013-05-13 23:48:00,
2013-05-13 18:53:00,62.3,33.6,29.96,SSW,205,8.0,10.8,34,0.00,BKN,,0.00,72.0,WeatherDisplay:10.37,2013-05-13 23:53:00,
2013-05-13 18:58:00,62.3,34.3,29.96,SSW,209,5.4,7.2,35,0.00,BKN,,0.00,65.0,WeatherDisplay:10.37,2013-05-13 23:58:00,
2013-05-13 19:03:00,62.1,34.1,29.95,SSW,200,3.9,7.2,35,0.00,SCT,,0.00,47.0,WeatherDisplay:10.37,2013-05-14 00:03:00,
2013-05-13 19:08:00,62.1,34.8,29.95,SSW,209,6.1,8.4,36,0.00,SCT,,0.00,40.0,WeatherDisplay:10.37,2013-05-14 00:08:00,
2013-05-13 19:13:00,62.0,35.4,29.95,South,182,3.5,9.2,37,0.00,SCT,,0.00,42.0,WeatherDisplay:10.37,2013-05-14 00:13:00,
2013-05-13 19:18:00,61.8,34.5,29.96,SSW,205,5.1,8.4,36,0.00,SCT,,0.00,33.0,WeatherDisplay:10.37,2013-05-14 00:18:00,
2013-05-13 19:23:00,61.8,34.5,29.96,South,176,2.2,4.8,36,0.00,CLR,,0.00,32.0,WeatherDisplay:10.37,2013-05-14 00:23:00,
2013-05-13 19:28:00,61.6,35.1,29.96,SSW,202,4.9,9.6,37,0.00,CLR,,0.00,26.0,WeatherDisplay:10.37,2013-05-14 00:28:00,
2013-05-13 19:33:00,61.6,35.7,29.95,South,188,0.0,1.2,38,0.00,CLR,,0.00,30.0,WeatherDisplay:10.37,2013-05-14 00:33:00,
2013-05-13 19:38:00,61.6,34.4,29.95,South,186,3.5,4.8,36,0.00,CLR,,0.00,25.0,WeatherDisplay:10.37,2013-05-14 00:38:00,
2013-05-13 19:43:00,61.6,35.7,29.95,South,180,0.1,3.6,38,0.00,CLR,,0.00,16.0,WeatherDisplay:10.37,2013-05-14 00:43:00,
2013-05-13 19:48:00,61.5,35.6,29.95,SSW,200,0.0,0.0,38,0.00,CLR,,0.00,14.0,WeatherDisplay:10.37,2013-05-14 00:48:00,
2013-05-13 19:53:00,61.5,34.3,29.95,South,184,2.7,7.2,36,0.00,CLR,,0.00,9.0,WeatherDisplay:10.37,2013-05-14 00:53:00,
2013-05-13 19:58:00,61.5,35.0,29.95,South,178,0.4,3.5,37,0.00,CLR,,0.00,9.0,WeatherDisplay:10.37,2013-05-14 00:58:00,
2013-05-13 20:03:00,61.5,35.0,29.94,South,188,1.2,7.2,37,0.00,CLR,,0.00,0.0,WeatherDisplay:10.37,2013-05-14 01:03:00,
2013-05-13 20:08:00,61.3,34.8,29.94,South,182,0.5,2.4,37,0.00,CLR,,0.00,0.0,WeatherDisplay:10.37,2013-05-14 01:08:00,
2013-05-13 20:13:00,61.2,36.0,29.94,South,188,1.3,6.0,39,0.00,CLR,,0.00,0.0,WeatherDisplay:10.37,2013-05-14 01:13:00,
2013-05-13 20:18:00,61.0,35.8,29.94,South,178,1.5,4.8,39,0.00,CLR,,0.00,0.0,WeatherDisplay:10.37,2013-05-14 01:18:00,
2013-05-13 20:23:00,60.9,35.8,29.94,South,174,2.3,6.0,39,0.00,CLR,,0.00,0.0,WeatherDisplay:10.37,2013-05-14 01:23:00,
2013-05-13 20:28:00,60.7,35.6,29.94,South,183,2.3,6.0,39,0.00,CLR,,0.00,0.0,WeatherDisplay:10.37,2013-05-14 01:28:00,
2013-05-13 20:33:00,60.5,36.0,29.92,South,182,0.0,1.2,40,0.00,CLR,,0.00,0.0,WeatherDisplay:10.37,2013-05-14 01:33:00,
2013-05-13 20:38:00,60.4,35.9,29.92,South,184,3.4,7.2,40,0.00,CLR,,0.00,0.0,WeatherDisplay:10.37,2013-05-14 01:38:00,
2013-05-13 20:43:00,60.2,36.4,29.92,South,177,1.8,4.8,41,0.00,CLR,,0.00,0.0,WeatherDisplay:10.37,2013-05-14 01:43:00,
2013-05-13 20:48:00,60.1,36.3,29.92,South,175,0.2,1.2,41,0.00,CLR,,0.00,0.0,WeatherDisplay:10.37,2013-05-14 01:48:00,
2013-05-13 20:53:00,59.9,36.1,29.92,South,169,2.6,6.0,41,0.00,CLR,,0.00,0.0,WeatherDisplay:10.37,2013-05-14 01:53:00,
2013-05-13 20:58:00,59.9,36.1,29.92,South,173,3.9,8.4,41,0.00,CLR,,0.00,0.0,WeatherDisplay:10.37,2013-05-14 01:58:00,
2013-05-13 21:03:00,59.9,36.7,29.91,South,175,1.3,6.0,42,0.00,CLR,,0.00,0.0,WeatherDisplay:10.37,2013-05-14 02:03:00,
2013-05-13 21:08:00,59.8,37.2,29.91,South,169,0.3,2.4,43,0.00,CLR,,0.00,0.0,WeatherDisplay:10.37,2013-05-14 02:08:00,
2013-05-13 21:13:00,59.5,37.0,29.91,SSE,168,2.3,6.0,43,0.00,CLR,,0.00,0.0,WeatherDisplay:10.37,2013-05-14 02:13:00,
2013-05-13 21:18:00,59.3,37.4,29.91,SSE,166,2.6,6.9,44,0.00,CLR,,0.00,0.0,WeatherDisplay:10.37,2013-05-14 02:18:00,
2013-05-13 21:23:00,59.3,36.8,29.91,South,172,2.3,6.0,43,0.00,CLR,,0.00,0.0,WeatherDisplay:10.37,2013-05-14 02:23:00,
2013-05-13 21:28:00,59.2,37.3,29.91,South,182,1.7,4.8,44,0.00,CLR,,0.00,0.0,WeatherDisplay:10.37,2013-05-14 02:28:00,
2013-05-13 21:33:00,59.0,37.1,29.90,SSE,168,4.3,6.0,44,0.00,CLR,,0.00,0.0,WeatherDisplay:10.37,2013-05-14 02:33:00,
2013-05-13 21:38:00,58.9,37.6,29.90,SSW,203,0.1,1.2,45,0.00,CLR,,0.00,0.0,WeatherDisplay:10.37,2013-05-14 02:38:00,
2013-05-13 21:43:00,58.6,37.3,29.90,SSE,166,2.7,6.0,45,0.00,CLR,,0.00,0.0,WeatherDisplay:10.37,2013-05-14 02:43:00,
2013-05-13 21:48:00,58.6,36.7,29.89,SSE,166,2.8,6.0,44,0.00,CLR,,0.00,0.0,WeatherDisplay:10.37,2013-05-14 02:48:00,
2013-05-13 21:53:00,58.4,37.1,29.89,South,186,2.0,7.2,45,0.00,CLR,,0.00,0.0,WeatherDisplay:10.37,2013-05-14 02:53:00,
2013-05-13 21:58:00,58.3,37.0,29.89,SSE,163,7.0,8.4,45,0.00,CLR,,0.00,0.0,WeatherDisplay:10.37,2013-05-14 02:58:00,
2013-05-13 22:03:00,58.3,37.0,29.89,SSE,161,4.0,6.0,45,0.00,CLR,,0.00,0.0,WeatherDisplay:10.37,2013-05-14 03:03:00,
2013-05-13 22:08:00,58.1,36.9,29.89,South,183,4.1,6.0,45,0.00,CLR,,0.00,0.0,WeatherDisplay:10.37,2013-05-14 03:08:00,
2013-05-13 22:13:00,58.1,36.3,29.89,SSE,166,2.3,6.0,44,0.00,CLR,,0.00,0.0,WeatherDisplay:10.37,2013-05-14 03:13:00,
2013-05-13 22:18:00,58.3,36.5,29.87,SSE,155,6.7,8.4,44,0.00,CLR,,0.00,0.0,WeatherDisplay:10.37,2013-05-14 03:18:00,
2013-05-13 22:23:00,58.4,36.6,29.87,SSE,165,9.6,15.0,44,0.00,CLR,,0.00,0.0,WeatherDisplay:10.37,2013-05-14 03:23:00,
2013-05-13 22:28:00,58.4,36.6,29.87,South,182,4.7,8.4,44,0.00,CLR,,0.00,0.0,WeatherDisplay:10.37,2013-05-14 03:28:00,
2013-05-13 22:33:00,58.4,36.6,29.86,South,169,5.9,8.4,44,0.00,CLR,,0.00,0.0,WeatherDisplay:10.37,2013-05-14 03:33:00,
2013-05-13 22:38:00,58.4,36.0,29.86,SSE,168,6.5,10.4,43,0.00,CLR,,0.00,0.0,WeatherDisplay:10.37,2013-05-14 03:38:00,
2013-05-13 22:43:00,58.4,36.6,29.86,South,178,6.3,8.4,44,0.00,CLR,,0.00,0.0,WeatherDisplay:10.37,2013-05-14 03:43:00,
2013-05-13 22:48:00,58.3,37.0,29.86,South,173,0.3,7.2,45,0.00,CLR,,0.00,0.0,WeatherDisplay:10.37,2013-05-14 03:48:00,
2013-05-13 22:53:00,58.3,37.0,29.86,South,175,7.0,10.8,45,0.00,CLR,,0.00,0.0,WeatherDisplay:10.37,2013-05-14 03:53:00,
2013-05-13 22:58:00,58.4,36.6,29.86,SSE,155,5.4,8.4,44,0.00,CLR,,0.00,0.0,WeatherDisplay:10.37,2013-05-14 03:58:00,
2013-05-13 23:01:00,58.6,37.3,29.85,South,186,8.1,9.6,45,0.00,CLR,,0.00,0.0,WeatherDisplay:10.37,2013-05-14 04:01:00,
2013-05-13 23:02:00,58.6,37.3,29.85,South,169,6.1,9.2,45,0.00,CLR,,0.00,0.0,WeatherDisplay:10.37,2013-05-14 04:02:00,
2013-05-13 23:07:00,58.4,37.1,29.85,SSW,197,5.9,7.2,45,0.00,CLR,,0.00,0.0,WeatherDisplay:10.37,2013-05-14 04:07:00,
2013-05-13 23:12:00,58.4,37.1,29.85,South,183,4.3,6.0,45,0.00,CLR,,0.00,0.0,WeatherDisplay:10.37,2013-05-14 04:12:00,
2013-05-13 23:17:00,58.4,37.1,29.84,SW,216,6.4,10.8,45,0.00,CLR,,0.00,0.0,WeatherDisplay:10.37,2013-05-14 04:17:00,
2013-05-13 23:22:00,58.4,37.7,29.84,SSE,163,6.4,9.2,46,0.00,CLR,,0.00,0.0,WeatherDisplay:10.37,2013-05-14 04:22:00,
2013-05-13 23:27:00,58.4,37.1,29.84,South,185,7.2,8.4,45,0.00,CLR,,0.00,0.0,WeatherDisplay:10.37,2013-05-14 04:27:00,
2013-05-13 23:32:00,58.3,37.6,29.84,South,190,6.2,8.4,46,0.00,CLR,,0.00,0.0,WeatherDisplay:10.37,2013-05-14 04:32:00,
2013-05-13 23:37:00,58.3,37.0,29.84,South,184,7.9,13.2,45,0.00,CLR,,0.00,0.0,WeatherDisplay:10.37,2013-05-14 04:37:00,
2013-05-13 23:42:00,58.6,37.3,29.84,SSW,192,6.7,13.2,45,0.00,CLR,,0.00,0.0,WeatherDisplay:10.37,2013-05-14 04:42:00,
2013-05-13 23:47:00,58.4,37.7,29.82,SSE,163,9.0,13.2,46,0.00,CLR,,0.00,0.0,WeatherDisplay:10.37,2013-05-14 04:47:00,
2013-05-13 23:52:00,58.6,37.3,29.82,South,171,10.0,14.4,45,0.00,CLR,,0.00,0.0,WeatherDisplay:10.37,2013-05-14 04:52:00,
2013-05-13 23:57:00,58.6,37.9,29.82,SSE,163,11.8,19.6,46,0.00,CLR,,0.00,0.0,WeatherDisplay:10.37,2013-05-14 04:57:00,